MROCKBPT

Guest
Details From MROC - San Jose Juan Santamaria Intl
To KBPT - Southeast Texas Rgnl
Flight Number -
Tags Generated
Created
Modified
Stats Distance 1,319 nm / 2,443 km
Max Altitude 0 ft / 0 m
Waypoints 4
Social Downloads 1
Likes 0
Share VATSIM

Download

Looking for another format? Having issues loading an existing format? Contact us
Advertisement - Login to hide

Notes

Generated

Route

MROC LLACL R0310 KBPT

ID Type Via Altitude Latitude Longitude Leg Dist Tot Dist Heading (true) Name
O MROC APT - 0 ft / 0 m 9.98900˚ -84.22186˚ - 0 nm - -
LLACL FIX - 0 ft / 0 m 26.33333˚ -92.00000˚ 1076 nm 1076 nm 337° / 334° -
R0310 FIX - 0 ft / 0 m 29.95799˚ -94.02536˚ 242 nm 1319 nm 334° / 333° -
O KBPT APT - 0 ft / 0 m 29.95799˚ -94.02536˚ 0 nm 1319 nm 0° / 360° -

Altitude Profile

Advertisement - Login to hide

Weather


0- 5 10 15 20 25 30 35+ Temperature / ° C

Clouds and Precipitation
Forecast for 2017-12-12 18:00 UTC. Updated an hour ago

Ground ~20,000 ft ~40,000 ft Winds

MROC

Details ICAO MROC (SJO)
Name San Jose Juan Santamaria Intl
Region Costa Rica
Timezone America/Costa_Rica (UTC-6.0)
Stats Elevation 3,021 ft / 921 m (AMSL)
Location 9.993927° -84.208884°
Runways 1
Magnetic Variation 1.718° W

METAR

MROC 121600Z 06009KT 030V090 9999 FEW030 OVC120 20/14 A3011 NOSIG

Decode

TAF

Not found

Departure Runways

ID Width Length Bearing (true) Bearing (mag) Surface Threshold Offset Overrun Length
07 151 ft / 46 m 9,994 ft / 3,046 m 68.91° 70.63° Asphalt 0 ft / 0 m 200 ft / 61 m
25 151 ft / 46 m 9,994 ft / 3,046 m 248.92° 250.64° Asphalt 1,969 ft / 600 m 200 ft / 61 m

KBPT

Details ICAO KBPT (BPT)
Name SOUTHEAST TEXAS RGNL
Region United States
Timezone America/Chicago (UTC-6.0)
Stats Elevation 15 ft / 5 m (AMSL)
Location 29.950881° -94.021036°
Runways 2
Magnetic Variation 1.667° E

METAR

KBPT 121553Z 36014G21KT 10SM CLR 14/00 A3029 RMK AO2 SLP256 T01390000 $

Decode

TAF

KBPT 121127Z 1212/1312 33008KT P6SM FEW250 FM121500 36014KT P6SM SKC FM130000 34005KT P6SM SKC

Decode

Destination Runways

ID Width Length Bearing (true) Bearing (mag) Surface Threshold Offset Overrun Length
12 151 ft / 46 m 6,737 ft / 2,054 m 121.04° 119.37° Concrete 0 ft / 0 m 0 ft / 0 m
16 151 ft / 46 m 5,088 ft / 1,551 m 165.99° 164.32° Asphalt 0 ft / 0 m 0 ft / 0 m
30 151 ft / 46 m 6,737 ft / 2,054 m 301.04° 299.37° Concrete 0 ft / 0 m 0 ft / 0 m
34 151 ft / 46 m 5,088 ft / 1,551 m 345.99° 344.32° Asphalt 0 ft / 0 m 0 ft / 0 m

Approach Navaids

Runway Type Ident Frequency Range Bearing (true) Bearing (mag) Slope Elevation
12 Localiser IBPT 110.15 MHz 18 nm / 33 km 121.07° 119.40° - 5 ft / 2 m (AMSL)
12 Glidescope IBPT 110.15 MHz 10 nm / 19 km 121.04° 119.37° 3.00° 12 ft / 4 m (AMSL)
12 DME IBPT 110.15 MHz 18 nm / 33 km - - - 19 ft / 6 m (AMSL)